Algoma Strongfield — CFJ8305 — position and weather

sailwx.info

Track history (hours):
 
Tides and Currents Weather Stations Pressure Air Temp Water Temp Dewpoint Dewpoint Depression Visibility Wind Speed Wind Dir Waves Ship Positions

Algoma Strongfield

Last reported at 2018-May-25 17:13 UTC. Time now 2018-May-26 23:11 UTC.
Position N 45°14' W 074°01'.

Length 226 m; draft 8.1 m.

Type: Ship. MMSI: 316014060.

Date/timePositionNaut miles runAvg speedWind from/ knotsBaromVisibWave heightAir tempDewpointWater temp
2018-May-25 17:13N 45°14' W 074°01'2 8.7
2018-May-25 16:58N 45°15' W 073°58'4 7.9
2018-May-25 16:30N 45°18' W 073°56'0 0.5
2018-May-25 16:00N 45°18' W 073°56'0 0.7
2018-May-25 15:30N 45°19' W 073°55'0 1.0
2018-May-25 15:00N 45°19' W 073°55'0 0.0
2018-May-25 14:30N 45°19' W 073°55'0 0.5
2018-May-25 14:00N 45°19' W 073°55'1 2.5
2018-May-25 13:27N 45°20' W 073°54'4 9.2
2018-May-25 12:59N 45°23' W 073°49'4 8.8
2018-May-25 12:30N 45°24' W 073°43'3 4.5
2018-May-25 11:46N 45°24' W 073°38'1 4.7
2018-May-25 11:26N 45°24' W 073°36'2 3.9
2018-May-25 11:01N 45°24' W 073°34'0 0.3
2018-May-25 10:31N 45°24' W 073°34'1 2.2
2018-May-25 10:01N 45°24' W 073°32'2 4.5
2018-May-25 09:30N 45°26' W 073°30'2 4.3
2018-May-25 09:00N 45°28' W 073°30'1 2.9
2018-May-25 08:31N 45°30' W 073°31'0 0.5
2018-May-25 08:00N 45°30' W 073°31'6 5.1
2018-May-25 06:47N 45°36' W 073°30'3 8.1
2018-May-25 06:27N 45°39' W 073°29'4 9.7
2018-May-25 06:00N 45°43' W 073°26'510.1
2018-May-25 05:30N 45°47' W 073°22'510.0
2018-May-25 05:00N 45°50' W 073°17'5 9.6
2018-May-25 04:30N 45°54' W 073°13'510.1
2018-May-25 04:00N 45°59' W 073°11'4 9.0
2018-May-25 03:30N 46°03' W 073°08'9010.5
2018-May-24 18:55N 46°46' W 071°14'410.4
2018-May-24 18:30N 46°50' W 071°11'  
2018-May-20 06:41N 46°50' W 071°11'8711.7
2018-May-19 23:15N 46°06' W 072°60'312.4
2018-May-19 23:00N 46°04' W 073°03'611.4
2018-May-19 22:30N 46°01' W 073°10'713.1
2018-May-19 22:00N 45°55' W 073°13'714.1
2018-May-19 21:31N 45°49' W 073°19'713.8
2018-May-19 21:00N 45°44' W 073°25'1410.3
2018-May-19 19:38N 45°30' W 073°31'0 3.2
2018-May-19 19:31N 45°30' W 073°31'0 0.2
2018-May-19 18:59N 45°30' W 073°31'0 0.4
2018-May-19 18:31N 45°29' W 073°31'1 1.9
2018-May-19 18:00N 45°29' W 073°31'2 4.9
2018-May-19 17:30N 45°26' W 073°30'3 5.0
2018-May-19 17:00N 45°24' W 073°33'1 1.7
2018-May-19 16:30N 45°24' W 073°34'0 0.6
2018-May-19 16:01N 45°24' W 073°34'2 3.5
2018-May-19 15:31N 45°24' W 073°37'3 5.1
2018-May-19 15:00N 45°25' W 073°40'3 6.5
2018-May-19 14:30N 45°24' W 073°45'510.8
2018-May-19 14:01N 45°21' W 073°51'4 7.1
2018-May-19 13:30N 45°19' W 073°55'0 0.3
2018-May-19 13:00N 45°19' W 073°55'1 1.2
2018-May-19 12:30N 45°18' W 073°56'0 0.3
2018-May-19 12:00N 45°18' W 073°56'1 1.9
2018-May-19 11:30N 45°17' W 073°56'2 4.9
2018-May-19 11:00N 45°15' W 073°58'6 8.8
2018-May-19 10:18N 45°14' W 074°07'310.2
2018-May-19 10:00N 45°14' W 074°11'  
Track history (hours):
 
Tides and Currents Weather Stations Pressure Air Temp Water Temp Dewpoint Dewpoint Depression Visibility Wind Speed Wind Dir Waves Ship Positions

Algoma Strongfield

Last reported at 2018-May-25 17:13 UTC. Time now 2018-May-26 23:11 UTC.
Position N 45°14' W 074°01'.

Length 226 m; draft 8.1 m.

Type: Ship. MMSI: 316014060.

Date/timePositionNaut miles runAvg speedWind from/ knotsBaromVisibWave heightAir tempDewpointWater temp
2018-May-25 17:13N 45°14' W 074°01'2 8.7
2018-May-25 16:58N 45°15' W 073°58'4 7.9
2018-May-25 16:30N 45°18' W 073°56'0 0.5
2018-May-25 16:00N 45°18' W 073°56'0 0.7
2018-May-25 15:30N 45°19' W 073°55'0 1.0
2018-May-25 15:00N 45°19' W 073°55'0 0.0
2018-May-25 14:30N 45°19' W 073°55'0 0.5
2018-May-25 14:00N 45°19' W 073°55'1 2.5
2018-May-25 13:27N 45°20' W 073°54'4 9.2
2018-May-25 12:59N 45°23' W 073°49'4 8.8
2018-May-25 12:30N 45°24' W 073°43'3 4.5
2018-May-25 11:46N 45°24' W 073°38'1 4.7
2018-May-25 11:26N 45°24' W 073°36'2 3.9
2018-May-25 11:01N 45°24' W 073°34'0 0.3
2018-May-25 10:31N 45°24' W 073°34'1 2.2
2018-May-25 10:01N 45°24' W 073°32'2 4.5
2018-May-25 09:30N 45°26' W 073°30'2 4.3
2018-May-25 09:00N 45°28' W 073°30'1 2.9
2018-May-25 08:31N 45°30' W 073°31'0 0.5
2018-May-25 08:00N 45°30' W 073°31'6 5.1
2018-May-25 06:47N 45°36' W 073°30'3 8.1
2018-May-25 06:27N 45°39' W 073°29'4 9.7
2018-May-25 06:00N 45°43' W 073°26'510.1
2018-May-25 05:30N 45°47' W 073°22'510.0
2018-May-25 05:00N 45°50' W 073°17'5 9.6
2018-May-25 04:30N 45°54' W 073°13'510.1
2018-May-25 04:00N 45°59' W 073°11'4 9.0
2018-May-25 03:30N 46°03' W 073°08'9010.5
2018-May-24 18:55N 46°46' W 071°14'410.4
2018-May-24 18:30N 46°50' W 071°11'  
2018-May-20 06:41N 46°50' W 071°11'8711.7
2018-May-19 23:15N 46°06' W 072°60'312.4
2018-May-19 23:00N 46°04' W 073°03'611.4
2018-May-19 22:30N 46°01' W 073°10'713.1
2018-May-19 22:00N 45°55' W 073°13'714.1
2018-May-19 21:31N 45°49' W 073°19'713.8
2018-May-19 21:00N 45°44' W 073°25'1410.3
2018-May-19 19:38N 45°30' W 073°31'0 3.2
2018-May-19 19:31N 45°30' W 073°31'0 0.2
2018-May-19 18:59N 45°30' W 073°31'0 0.4
2018-May-19 18:31N 45°29' W 073°31'1 1.9
2018-May-19 18:00N 45°29' W 073°31'2 4.9
2018-May-19 17:30N 45°26' W 073°30'3 5.0
2018-May-19 17:00N 45°24' W 073°33'1 1.7
2018-May-19 16:30N 45°24' W 073°34'0 0.6
2018-May-19 16:01N 45°24' W 073°34'2 3.5
2018-May-19 15:31N 45°24' W 073°37'3 5.1
2018-May-19 15:00N 45°25' W 073°40'3 6.5
2018-May-19 14:30N 45°24' W 073°45'510.8
2018-May-19 14:01N 45°21' W 073°51'4 7.1
2018-May-19 13:30N 45°19' W 073°55'0 0.3
2018-May-19 13:00N 45°19' W 073°55'1 1.2
2018-May-19 12:30N 45°18' W 073°56'0 0.3
2018-May-19 12:00N 45°18' W 073°56'1 1.9
2018-May-19 11:30N 45°17' W 073°56'2 4.9
2018-May-19 11:00N 45°15' W 073°58'6 8.8
2018-May-19 10:18N 45°14' W 074°07'310.2
2018-May-19 10:00N 45°14' W 074°11'  

Dump ship's entire track history